sensor_id;sensor_type;location;lat;lon;timestamp;pressure;altitude;pressure_sealevel;temperature;humidity
81704;BME280;71117;52.352;4.808;2024-03-06T00:01:03;101892.81;;;6.61;100.00
81704;BME280;71117;52.352;4.808;2024-03-06T00:03:28;101886.13;;;6.68;100.00
81704;BME280;71117;52.352;4.808;2024-03-06T00:05:54;101894.34;;;6.74;100.00
81704;BME280;71117;52.352;4.808;2024-03-06T00:08:19;101888.16;;;6.73;100.00
81704;BME280;71117;52.352;4.808;2024-03-06T00:10:44;101895.97;;;6.72;100.00
81704;BME280;71117;52.352;4.808;2024-03-06T00:13:10;101899.44;;;6.71;100.00
81704;BME280;71117;52.352;4.808;2024-03-06T00:15:36;101901.81;;;6.66;100.00
81704;BME280;71117;52.352;4.808;2024-03-06T00:18:01;101899.13;;;6.65;100.00
81704;BME280;71117;52.352;4.808;2024-03-06T00:20:27;101909.63;;;6.65;100.00
81704;BME280;71117;52.352;4.808;2024-03-06T00:22:53;101907.66;;;6.60;100.00
81704;BME280;71117;52.352;4.808;2024-03-06T00:25:18;101913.72;;;6.59;100.00
81704;BME280;71117;52.352;4.808;2024-03-06T00:27:44;101911.88;;;6.57;100.00
81704;BME280;71117;52.352;4.808;2024-03-06T00:30:09;101914.31;;;6.54;100.00
81704;BME280;71117;52.352;4.808;2024-03-06T00:32:35;101915.09;;;6.51;100.00
81704;BME280;71117;52.352;4.808;2024-03-06T00:35:01;101919.41;;;6.51;100.00
81704;BME280;71117;52.352;4.808;2024-03-06T00:37:26;101919.41;;;6.51;100.00
81704;BME280;71117;52.352;4.808;2024-03-06T00:39:51;101924.75;;;6.52;100.00
81704;BME280;71117;52.352;4.808;2024-03-06T00:42:17;101930.06;;;6.54;100.00
81704;BME280;71117;52.352;4.808;2024-03-06T00:44:42;101930.97;;;6.54;100.00
81704;BME280;71117;52.352;4.808;2024-03-06T00:47:08;101930.97;;;6.54;100.00
81704;BME280;71117;52.352;4.808;2024-03-06T00:49:33;101932.75;;;6.55;100.00
81704;BME280;71117;52.352;4.808;2024-03-06T00:51:58;101924.81;;;6.54;100.00
81704;BME280;71117;52.352;4.808;2024-03-06T00:54:24;101939.66;;;6.53;100.00
81704;BME280;71117;52.352;4.808;2024-03-06T00:56:49;101940.50;;;6.52;100.00
81704;BME280;71117;52.352;4.808;2024-03-06T00:59:14;101933.53;;;6.53;100.00
81704;BME280;71117;52.352;4.808;2024-03-06T01:01:40;101932.53;;;6.51;100.00
81704;BME280;71117;52.352;4.808;2024-03-06T01:04:06;101929.69;;;6.46;100.00
81704;BME280;71117;52.352;4.808;2024-03-06T01:06:31;101936.31;;;6.40;100.00
81704;BME280;71117;52.352;4.808;2024-03-06T01:08:57;101935.09;;;6.33;100.00
81704;BME280;71117;52.352;4.808;2024-03-06T01:11:23;101936.56;;;6.28;100.00
81704;BME280;71117;52.352;4.808;2024-03-06T01:13:48;101932.72;;;6.21;100.00
81704;BME280;71117;52.352;4.808;2024-03-06T01:16:14;101934.38;;;6.19;100.00
81704;BME280;71117;52.352;4.808;2024-03-06T01:18:39;101942.91;;;6.15;100.00
81704;BME280;71117;52.352;4.808;2024-03-06T01:21:05;101949.88;;;6.15;100.00
81704;BME280;71117;52.352;4.808;2024-03-06T01:23:30;101950.63;;;6.12;100.00
81704;BME280;71117;52.352;4.808;2024-03-06T01:25:55;101959.22;;;6.09;100.00
81704;BME280;71117;52.352;4.808;2024-03-06T01:28:20;101947.81;;;6.09;100.00
81704;BME280;71117;52.352;4.808;2024-03-06T01:30:46;101951.34;;;6.09;100.00
81704;BME280;71117;52.352;4.808;2024-03-06T01:33:11;101954.78;;;6.08;100.00
81704;BME280;71117;52.352;4.808;2024-03-06T01:35:37;101953.91;;;6.08;100.00
81704;BME280;71117;52.352;4.808;2024-03-06T01:38:02;101951.28;;;6.08;100.00
81704;BME280;71117;52.352;4.808;2024-03-06T01:40:27;101956.50;;;6.08;100.00
81704;BME280;71117;52.352;4.808;2024-03-06T01:42:54;101955.88;;;6.12;100.00
81704;BME280;71117;52.352;4.808;2024-03-06T01:45:20;101961.91;;;6.11;100.00
81704;BME280;71117;52.352;4.808;2024-03-06T01:47:45;101956.59;;;6.09;100.00
81704;BME280;71117;52.352;4.808;2024-03-06T01:50:11;101953.25;;;6.12;100.00
81704;BME280;71117;52.352;4.808;2024-03-06T01:52:39;101949.22;;;6.19;100.00
81704;BME280;71117;52.352;4.808;2024-03-06T01:55:06;101951.91;;;6.20;100.00
81704;BME280;71117;52.352;4.808;2024-03-06T01:57:33;101952.25;;;6.26;100.00
81704;BME280;71117;52.352;4.808;2024-03-06T01:59:59;101952.47;;;6.31;100.00
81704;BME280;71117;52.352;4.808;2024-03-06T02:02:25;101958.63;;;6.31;100.00
81704;BME280;71117;52.352;4.808;2024-03-06T02:04:53;101951.84;;;6.35;100.00
81704;BME280;71117;52.352;4.808;2024-03-06T02:07:19;101958.94;;;6.38;100.00
81704;BME280;71117;52.352;4.808;2024-03-06T02:09:45;101955.50;;;6.39;100.00
81704;BME280;71117;52.352;4.808;2024-03-06T02:12:12;101964.13;;;6.36;100.00
81704;BME280;71117;52.352;4.808;2024-03-06T02:14:38;101968.47;;;6.35;100.00
81704;BME280;71117;52.352;4.808;2024-03-06T02:17:03;101965.91;;;6.37;100.00
81704;BME280;71117;52.352;4.808;2024-03-06T02:19:39;101965.28;;;6.41;100.00
81704;BME280;71117;52.352;4.808;2024-03-06T02:22:06;101973.78;;;6.37;100.00
81704;BME280;71117;52.352;4.808;2024-03-06T02:24:31;101971.34;;;6.40;100.00
81704;BME280;71117;52.352;4.808;2024-03-06T02:26:56;101964.25;;;6.39;100.00
81704;BME280;71117;52.352;4.808;2024-03-06T02:29:24;101976.72;;;6.43;100.00
81704;BME280;71117;52.352;4.808;2024-03-06T02:31:50;101978.53;;;6.44;100.00
81704;BME280;71117;52.352;4.808;2024-03-06T02:34:15;101979.34;;;6.43;100.00
81704;BME280;71117;52.352;4.808;2024-03-06T02:36:41;101986.25;;;6.41;100.00
81704;BME280;71117;52.352;4.808;2024-03-06T02:39:06;101982.72;;;6.41;100.00
81704;BME280;71117;52.352;4.808;2024-03-06T02:41:35;101982.72;;;6.41;100.00
81704;BME280;71117;52.352;4.808;2024-03-06T02:44:03;101979.94;;;6.38;100.00
81704;BME280;71117;52.352;4.808;2024-03-06T02:46:29;101981.00;;;6.41;100.00
81704;BME280;71117;52.352;4.808;2024-03-06T02:48:54;101977.31;;;6.38;100.00
81704;BME280;71117;52.352;4.808;2024-03-06T02:51:20;101981.00;;;6.41;100.00
81704;BME280;71117;52.352;4.808;2024-03-06T02:53:46;101974.09;;;6.43;100.00
81704;BME280;71117;52.352;4.808;2024-03-06T02:56:18;101976.41;;;6.37;100.00
81704;BME280;71117;52.352;4.808;2024-03-06T02:58:44;101967.06;;;6.42;100.00
81704;BME280;71117;52.352;4.808;2024-03-06T03:01:10;101969.69;;;6.42;100.00
81704;BME280;71117;52.352;4.808;2024-03-06T03:03:35;101965.09;;;6.38;100.00
81704;BME280;71117;52.352;4.808;2024-03-06T03:06:01;101973.78;;;6.37;100.00
81704;BME280;71117;52.352;4.808;2024-03-06T03:08:26;101979.09;;;6.39;100.00
81704;BME280;71117;52.352;4.808;2024-03-06T03:10:52;101972.81;;;6.35;100.00
81704;BME280;71117;52.352;4.808;2024-03-06T03:13:17;101977.88;;;6.32;100.00
81704;BME280;71117;52.352;4.808;2024-03-06T03:15:42;101972.41;;;6.27;100.00
81704;BME280;71117;52.352;4.808;2024-03-06T03:18:08;101981.00;;;6.25;100.00
81704;BME280;71117;52.352;4.808;2024-03-06T03:20:33;101975.59;;;6.22;100.00
81704;BME280;71117;52.352;4.808;2024-03-06T03:23:00;101983.38;;;6.20;100.00
81704;BME280;71117;52.352;4.808;2024-03-06T03:25:26;101984.47;;;6.24;100.00
81704;BME280;71117;52.352;4.808;2024-03-06T03:27:51;101982.63;;;6.23;100.00
81704;BME280;71117;52.352;4.808;2024-03-06T03:30:17;101982.63;;;6.23;100.00
81704;BME280;71117;52.352;4.808;2024-03-06T03:32:45;101985.38;;;6.24;100.00
81704;BME280;71117;52.352;4.808;2024-03-06T03:35:11;101987.97;;;6.24;100.00
81704;BME280;71117;52.352;4.808;2024-03-06T03:37:36;101989.47;;;6.19;100.00
81704;BME280;71117;52.352;4.808;2024-03-06T03:40:01;101984.03;;;6.16;100.00
81704;BME280;71117;52.352;4.808;2024-03-06T03:42:28;101993.47;;;6.13;100.00
81704;BME280;71117;52.352;4.808;2024-03-06T03:44:53;101997.91;;;6.14;100.00
81704;BME280;71117;52.352;4.808;2024-03-06T03:47:21;101989.78;;;6.09;100.00
81704;BME280;71117;52.352;4.808;2024-03-06T03:49:47;101996.66;;;6.07;100.00
81704;BME280;71117;52.352;4.808;2024-03-06T03:52:13;102005.31;;;6.06;100.00
81704;BME280;71117;52.352;4.808;2024-03-06T03:54:38;101999.84;;;6.01;100.00
81704;BME280;71117;52.352;4.808;2024-03-06T03:57:06;102007.16;;;6.07;100.00
81704;BME280;71117;52.352;4.808;2024-03-06T03:59:33;101996.81;;;6.10;100.00
81704;BME280;71117;52.352;4.808;2024-03-06T04:01:58;102004.13;;;6.16;100.00
81704;BME280;71117;52.352;4.808;2024-03-06T04:04:24;101997.41;;;6.21;100.00
81704;BME280;71117;52.352;4.808;2024-03-06T04:06:49;101992.97;;;6.20;100.00
81704;BME280;71117;52.352;4.808;2024-03-06T04:09:14;102000.66;;;6.17;100.00
81704;BME280;71117;52.352;4.808;2024-03-06T04:11:40;101999.88;;;6.18;100.00
81704;BME280;71117;52.352;4.808;2024-03-06T04:14:05;101999.88;;;6.18;100.00
81704;BME280;71117;52.352;4.808;2024-03-06T04:16:32;102007.06;;;6.22;100.00
81704;BME280;71117;52.352;4.808;2024-03-06T04:18:57;102002.50;;;6.18;100.00
81704;BME280;71117;52.352;4.808;2024-03-06T04:21:23;102007.00;;;6.20;100.00
81704;BME280;71117;52.352;4.808;2024-03-06T04:23:48;102004.53;;;6.23;100.00
81704;BME280;71117;52.352;4.808;2024-03-06T04:26:13;102006.34;;;6.24;100.00
81704;BME280;71117;52.352;4.808;2024-03-06T04:28:39;102004.69;;;6.26;100.00
81704;BME280;71117;52.352;4.808;2024-03-06T04:31:04;102002.13;;;6.28;100.00
81704;BME280;71117;52.352;4.808;2024-03-06T04:33:30;102011.66;;;6.26;100.00
81704;BME280;71117;52.352;4.808;2024-03-06T04:35:55;102012.88;;;6.32;100.00
81704;BME280;71117;52.352;4.808;2024-03-06T04:38:21;102018.19;;;6.34;100.00
81704;BME280;71117;52.352;4.808;2024-03-06T04:40:46;102015.75;;;6.37;100.00
81704;BME280;71117;52.352;4.808;2024-03-06T04:43:11;102024.53;;;6.38;100.00
81704;BME280;71117;52.352;4.808;2024-03-06T04:45:37;102025.59;;;6.41;100.00
81704;BME280;71117;52.352;4.808;2024-03-06T04:48:02;102036.00;;;6.40;100.00
81704;BME280;71117;52.352;4.808;2024-03-06T04:50:28;102030.75;;;6.40;100.00
81704;BME280;71117;52.352;4.808;2024-03-06T04:52:56;102038.28;;;6.50;100.00
81704;BME280;71117;52.352;4.808;2024-03-06T04:55:21;102031.09;;;6.46;100.00
81704;BME280;71117;52.352;4.808;2024-03-06T04:57:48;102040.53;;;6.42;100.00
81704;BME280;71117;52.352;4.808;2024-03-06T05:00:14;102043.06;;;6.41;100.00
81704;BME280;71117;52.352;4.808;2024-03-06T05:02:39;102049.22;;;6.41;100.00
81704;BME280;71117;52.352;4.808;2024-03-06T05:05:07;102046.03;;;6.47;100.00
81704;BME280;71117;52.352;4.808;2024-03-06T05:07:33;102053.88;;;6.47;100.00
81704;BME280;71117;52.352;4.808;2024-03-06T05:10:00;102053.56;;;6.41;100.00
81704;BME280;71117;52.352;4.808;2024-03-06T05:12:26;102057.81;;;6.39;100.00
81704;BME280;71117;52.352;4.808;2024-03-06T05:14:52;102054.47;;;6.41;100.00
81704;BME280;71117;52.352;4.808;2024-03-06T05:17:18;102054.78;;;6.47;100.00
81704;BME280;71117;52.352;4.808;2024-03-06T05:19:44;102053.63;;;6.42;100.00
81704;BME280;71117;52.352;4.808;2024-03-06T05:22:10;102059.84;;;6.44;100.00
81704;BME280;71117;52.352;4.808;2024-03-06T05:24:38;102066.00;;;6.45;100.00
81704;BME280;71117;52.352;4.808;2024-03-06T05:27:04;102060.09;;;6.49;100.00
81704;BME280;71117;52.352;4.808;2024-03-06T05:29:29;102066.44;;;6.52;100.00
81704;BME280;71117;52.352;4.808;2024-03-06T05:31:54;102065.34;;;6.49;100.00
81704;BME280;71117;52.352;4.808;2024-03-06T05:34:21;102074.78;;;6.45;100.00
81704;BME280;71117;52.352;4.808;2024-03-06T05:36:47;102073.97;;;6.46;100.00
81704;BME280;71117;52.352;4.808;2024-03-06T05:39:12;102079.13;;;6.45;100.00
81704;BME280;71117;52.352;4.808;2024-03-06T05:41:41;102077.25;;;6.42;100.00
81704;BME280;71117;52.352;4.808;2024-03-06T05:44:07;102077.19;;;6.41;100.00
81704;BME280;71117;52.352;4.808;2024-03-06T05:46:33;102076.50;;;6.45;100.00
81704;BME280;71117;52.352;4.808;2024-03-06T05:48:58;102075.44;;;6.41;100.00
81704;BME280;71117;52.352;4.808;2024-03-06T05:51:23;102080.50;;;6.38;100.00
81704;BME280;71117;52.352;4.808;2024-03-06T05:53:49;102087.56;;;6.39;100.00
81704;BME280;71117;52.352;4.808;2024-03-06T05:56:14;102087.66;;;6.41;100.00
81704;BME280;71117;52.352;4.808;2024-03-06T05:58:39;102097.34;;;6.42;100.00
81704;BME280;71117;52.352;4.808;2024-03-06T06:01:05;102096.69;;;6.46;100.00
81704;BME280;71117;52.352;4.808;2024-03-06T06:03:30;102097.59;;;6.46;100.00
81704;BME280;71117;52.352;4.808;2024-03-06T06:05:56;102105.13;;;6.40;100.00
81704;BME280;71117;52.352;4.808;2024-03-06T06:08:22;102111.28;;;6.41;100.00
81704;BME280;71117;52.352;4.808;2024-03-06T06:10:47;102108.09;;;6.46;100.00
81704;BME280;71117;52.352;4.808;2024-03-06T06:13:13;102109.06;;;6.48;100.00
81704;BME280;71117;52.352;4.808;2024-03-06T06:15:38;102108.72;;;6.42;100.00
81704;BME280;71117;52.352;4.808;2024-03-06T06:18:04;102116.09;;;6.33;100.00
81704;BME280;71117;52.352;4.808;2024-03-06T06:20:29;102126.50;;;6.31;100.00
81704;BME280;71117;52.352;4.808;2024-03-06T06:22:55;102123.63;;;6.27;100.00
81704;BME280;71117;52.352;4.808;2024-03-06T06:25:23;102132.38;;;6.27;100.00
81704;BME280;71117;52.352;4.808;2024-03-06T06:27:48;102134.28;;;6.30;100.00
81704;BME280;71117;52.352;4.808;2024-03-06T06:30:14;102140.84;;;6.38;100.00
81704;BME280;71117;52.352;4.808;2024-03-06T06:32:41;102146.16;;;6.40;100.00
81704;BME280;71117;52.352;4.808;2024-03-06T06:35:07;102146.84;;;6.35;100.00
81704;BME280;71117;52.352;4.808;2024-03-06T06:37:32;102153.97;;;6.38;100.00
81704;BME280;71117;52.352;4.808;2024-03-06T06:39:59;102159.06;;;6.35;100.00
81704;BME280;71117;52.352;4.808;2024-03-06T06:42:24;102160.84;;;6.36;100.00
81704;BME280;71117;52.352;4.808;2024-03-06T06:44:50;102163.47;;;6.36;100.00
81704;BME280;71117;52.352;4.808;2024-03-06T06:47:16;102168.72;;;6.36;100.00
81704;BME280;71117;52.352;4.808;2024-03-06T06:49:42;102172.06;;;6.33;100.00
81704;BME280;71117;52.352;4.808;2024-03-06T06:52:08;102176.94;;;6.42;100.00
81704;BME280;71117;52.352;4.808;2024-03-06T06:54:33;102187.44;;;6.42;100.00
81704;BME280;71117;52.352;4.808;2024-03-06T06:56:58;102187.09;;;6.36;100.00
81704;BME280;71117;52.352;4.808;2024-03-06T06:59:23;102183.72;;;6.39;100.00
81704;BME280;71117;52.352;4.808;2024-03-06T07:01:49;102184.47;;;6.36;100.00
81704;BME280;71117;52.352;4.808;2024-03-06T07:04:14;102202.28;;;6.42;100.00
81704;BME280;71117;52.352;4.808;2024-03-06T07:06:44;102194.75;;;6.48;100.00
81704;BME280;71117;52.352;4.808;2024-03-06T07:09:10;102196.19;;;6.43;100.00
81704;BME280;71117;52.352;4.808;2024-03-06T07:11:35;102199.09;;;6.47;100.00
81704;BME280;71117;52.352;4.808;2024-03-06T07:14:00;102192.78;;;6.60;100.00
81704;BME280;71117;52.352;4.808;2024-03-06T07:16:26;102201.00;;;6.66;100.00
81704;BME280;71117;52.352;4.808;2024-03-06T07:18:51;102203.88;;;6.71;100.00
81704;BME280;71117;52.352;4.808;2024-03-06T07:21:16;102200.50;;;6.73;100.00
81704;BME280;71117;52.352;4.808;2024-03-06T07:23:43;102211.28;;;6.78;100.00
81704;BME280;71117;52.352;4.808;2024-03-06T07:26:08;102206.34;;;6.84;100.00
81704;BME280;71117;52.352;4.808;2024-03-06T07:28:33;102210.88;;;6.86;100.00
81704;BME280;71117;52.352;4.808;2024-03-06T07:30:59;102213.00;;;6.94;100.00
81704;BME280;71117;52.352;4.808;2024-03-06T07:33:24;102217.78;;;7.01;100.00
81704;BME280;71117;52.352;4.808;2024-03-06T07:35:49;102222.44;;;7.06;100.00
81704;BME280;71117;52.352;4.808;2024-03-06T07:38:15;102224.19;;;7.06;100.00
81704;BME280;71117;52.352;4.808;2024-03-06T07:40:40;102231.47;;;7.11;100.00
81704;BME280;71117;52.352;4.808;2024-03-06T07:43:06;102231.34;;;7.25;100.00
81704;BME280;71117;52.352;4.808;2024-03-06T07:45:31;102240.50;;;7.33;100.00
81704;BME280;71117;52.352;4.808;2024-03-06T07:47:56;102245.44;;;7.27;99.25
81704;BME280;71117;52.352;4.808;2024-03-06T07:50:22;102243.31;;;7.36;98.75
81704;BME280;71117;52.352;4.808;2024-03-06T07:52:48;102246.41;;;7.29;98.77
81704;BME280;71117;52.352;4.808;2024-03-06T07:55:13;102255.94;;;7.43;98.42
81704;BME280;71117;52.352;4.808;2024-03-06T07:57:38;102259.66;;;7.47;97.91
81704;BME280;71117;52.352;4.808;2024-03-06T08:00:06;102260.56;;;7.47;97.96
81704;BME280;71117;52.352;4.808;2024-03-06T08:02:39;102257.94;;;7.47;98.04
81704;BME280;71117;52.352;4.808;2024-03-06T08:05:08;102264.16;;;7.49;98.11
81704;BME280;71117;52.352;4.808;2024-03-06T08:07:35;102262.69;;;7.38;99.03
81704;BME280;71117;52.352;4.808;2024-03-06T08:10:00;102265.63;;;7.44;98.47
81704;BME280;71117;52.352;4.808;2024-03-06T08:12:25;102269.72;;;7.55;98.30
81704;BME280;71117;52.352;4.808;2024-03-06T08:14:50;102262.69;;;7.54;97.54
81704;BME280;71117;52.352;4.808;2024-03-06T08:17:16;102273.59;;;7.62;96.94
81704;BME280;71117;52.352;4.808;2024-03-06T08:19:41;102274.75;;;7.51;96.78
81704;BME280;71117;52.352;4.808;2024-03-06T08:22:06;102279.28;;;7.53;97.16
81704;BME280;71117;52.352;4.808;2024-03-06T08:24:31;102274.59;;;7.64;97.22
81704;BME280;71117;52.352;4.808;2024-03-06T08:26:57;102280.72;;;7.81;97.83
81704;BME280;71117;52.352;4.808;2024-03-06T08:29:22;102283.22;;;7.95;96.24
81704;BME280;71117;52.352;4.808;2024-03-06T08:31:47;102293.75;;;7.95;95.25
81704;BME280;71117;52.352;4.808;2024-03-06T08:34:13;102289.28;;;8.11;95.78
81704;BME280;71117;52.352;4.808;2024-03-06T08:36:38;102289.06;;;8.24;94.00
81704;BME280;71117;52.352;4.808;2024-03-06T08:39:03;102293.53;;;8.25;94.44
81704;BME280;71117;52.352;4.808;2024-03-06T08:41:30;102287.50;;;8.28;93.74
81704;BME280;71117;52.352;4.808;2024-03-06T08:43:56;102293.88;;;8.33;93.38
81704;BME280;71117;52.352;4.808;2024-03-06T08:46:21;102299.72;;;8.43;93.57
81704;BME280;71117;52.352;4.808;2024-03-06T08:48:47;102295.81;;;8.53;92.39
81704;BME280;71117;52.352;4.808;2024-03-06T08:51:12;102300.91;;;8.68;92.18
81704;BME280;71117;52.352;4.808;2024-03-06T08:53:39;102304.47;;;8.51;92.19
81704;BME280;71117;52.352;4.808;2024-03-06T08:56:05;102310.19;;;8.60;92.15
81704;BME280;71117;52.352;4.808;2024-03-06T08:58:31;102314.84;;;8.65;91.64
81704;BME280;71117;52.352;4.808;2024-03-06T09:00:56;102309.63;;;8.85;91.17
81704;BME280;71117;52.352;4.808;2024-03-06T09:03:24;102308.88;;;9.05;90.55
81704;BME280;71117;52.352;4.808;2024-03-06T09:05:49;102316.28;;;9.14;89.09
81704;BME280;71117;52.352;4.808;2024-03-06T09:08:14;102317.63;;;9.23;87.92
81704;BME280;71117;52.352;4.808;2024-03-06T09:10:40;102322.22;;;9.47;87.53
81704;BME280;71117;52.352;4.808;2024-03-06T09:13:05;102321.97;;;9.60;87.61
81704;BME280;71117;52.352;4.808;2024-03-06T09:15:31;102325.28;;;9.75;85.17
81704;BME280;71117;52.352;4.808;2024-03-06T09:17:56;102328.00;;;9.77;85.06
81704;BME280;71117;52.352;4.808;2024-03-06T09:20:22;102328.75;;;9.94;84.20
81704;BME280;71117;52.352;4.808;2024-03-06T09:22:49;102316.25;;;10.30;83.75
81704;BME280;71117;52.352;4.808;2024-03-06T09:25:14;102324.97;;;10.27;84.36
81704;BME280;71117;52.352;4.808;2024-03-06T09:27:40;102329.41;;;10.28;84.61
81704;BME280;71117;52.352;4.808;2024-03-06T09:30:05;102335.72;;;10.13;82.81
81704;BME280;71117;52.352;4.808;2024-03-06T09:32:31;102336.25;;;10.44;81.67
81704;BME280;71117;52.352;4.808;2024-03-06T09:34:57;102335.56;;;10.71;81.56
81704;BME280;71117;52.352;4.808;2024-03-06T09:37:23;102335.69;;;10.74;79.64
81704;BME280;71117;52.352;4.808;2024-03-06T09:39:48;102344.06;;;10.84;79.79
81704;BME280;71117;52.352;4.808;2024-03-06T09:42:15;102335.19;;;10.62;79.89
81704;BME280;71117;52.352;4.808;2024-03-06T09:44:43;102353.53;;;10.58;80.75
81704;BME280;71117;52.352;4.808;2024-03-06T09:47:13;102348.84;;;10.72;81.31
81704;BME280;71117;52.352;4.808;2024-03-06T09:49:40;102357.63;;;10.94;79.21
81704;BME280;71117;52.352;4.808;2024-03-06T09:52:05;102350.03;;;11.01;78.01
81704;BME280;71117;52.352;4.808;2024-03-06T09:54:31;102350.94;;;11.24;78.30
81704;BME280;71117;52.352;4.808;2024-03-06T09:56:56;102357.59;;;11.37;77.29
81704;BME280;71117;52.352;4.808;2024-03-06T09:59:24;102359.53;;;11.41;76.55
81704;BME280;71117;52.352;4.808;2024-03-06T10:01:53;102363.44;;;11.28;75.97
81704;BME280;71117;52.352;4.808;2024-03-06T10:04:26;102369.94;;;11.60;76.81
81704;BME280;71117;52.352;4.808;2024-03-06T10:06:59;102370.16;;;11.66;74.27
81704;BME280;71117;52.352;4.808;2024-03-06T10:09:25;102369.72;;;11.78;75.32
81704;BME280;71117;52.352;4.808;2024-03-06T10:11:51;102362.97;;;12.09;75.15
81704;BME280;71117;52.352;4.808;2024-03-06T10:14:22;102368.84;;;12.26;72.19
81704;BME280;71117;52.352;4.808;2024-03-06T10:19:19;102367.56;;;12.65;71.78
81704;BME280;71117;52.352;4.808;2024-03-06T10:21:48;102373.78;;;12.93;72.16
81704;BME280;71117;52.352;4.808;2024-03-06T10:24:21;102371.44;;;12.75;71.33
81704;BME280;71117;52.352;4.808;2024-03-06T10:26:49;102370.19;;;12.91;68.50
81704;BME280;71117;52.352;4.808;2024-03-06T10:29:18;102378.78;;;13.11;69.47
81704;BME280;71117;52.352;4.808;2024-03-06T10:31:58;102381.34;;;13.08;69.03
81704;BME280;71117;52.352;4.808;2024-03-06T10:34:27;102375.03;;;13.31;69.52
81704;BME280;71117;52.352;4.808;2024-03-06T10:37:01;102378.78;;;13.11;67.43
81704;BME280;71117;52.352;4.808;2024-03-06T10:39:30;102385.09;;;13.71;67.06
81704;BME280;71117;52.352;4.808;2024-03-06T10:41:56;102384.41;;;14.09;66.63
81704;BME280;71117;52.352;4.808;2024-03-06T10:44:26;102383.91;;;14.55;63.34
81704;BME280;71117;52.352;4.808;2024-03-06T10:47:00;102394.22;;;14.76;61.99
81704;BME280;71117;52.352;4.808;2024-03-06T10:49:29;102394.34;;;15.18;61.96
81704;BME280;71117;52.352;4.808;2024-03-06T10:52:05;102386.31;;;15.95;60.58
81704;BME280;71117;52.352;4.808;2024-03-06T10:54:32;102384.56;;;16.92;58.82
81704;BME280;71117;52.352;4.808;2024-03-06T10:57:00;102385.25;;;17.37;54.88
81704;BME280;71117;52.352;4.808;2024-03-06T10:59:27;102389.72;;;18.05;52.75
81704;BME280;71117;52.352;4.808;2024-03-06T11:01:56;102387.19;;;19.11;48.62
81704;BME280;71117;52.352;4.808;2024-03-06T11:04:25;102397.56;;;18.70;49.44
81704;BME280;71117;52.352;4.808;2024-03-06T11:06:51;102392.66;;;19.29;47.70
81704;BME280;71117;52.352;4.808;2024-03-06T11:09:17;102400.06;;;19.64;45.81
81704;BME280;71117;52.352;4.808;2024-03-06T11:11:52;102400.78;;;19.42;49.73
81704;BME280;71117;52.352;4.808;2024-03-06T11:14:18;102402.06;;;20.22;44.34
81704;BME280;71117;52.352;4.808;2024-03-06T11:17:09;102413.69;;;17.97;49.11
81704;BME280;71117;52.352;4.808;2024-03-06T11:28:11;102411.13;;;20.80;41.61
81704;BME280;71117;52.352;4.808;2024-03-06T11:31:09;102414.72;;;20.59;43.31
81704;BME280;71117;52.352;4.808;2024-03-06T11:33:41;102405.72;;;21.16;41.08
81704;BME280;71117;52.352;4.808;2024-03-06T11:38:56;102417.41;;;20.89;45.87
81704;BME280;71117;52.352;4.808;2024-03-06T11:41:23;102419.16;;;20.62;41.00
81704;BME280;71117;52.352;4.808;2024-03-06T11:43:50;102417.41;;;20.72;40.99
81704;BME280;71117;52.352;4.808;2024-03-06T11:46:21;102418.28;;;21.17;40.43
81704;BME280;71117;52.352;4.808;2024-03-06T11:48:56;102420.94;;;21.49;40.38
81704;BME280;71117;52.352;4.808;2024-03-06T11:51:24;102423.56;;;21.78;41.45
81704;BME280;71117;52.352;4.808;2024-03-06T11:53:51;102417.22;;;21.96;41.14
81704;BME280;71117;52.352;4.808;2024-03-06T11:56:19;102422.19;;;22.69;37.36
81704;BME280;71117;52.352;4.808;2024-03-06T11:58:45;102424.28;;;22.24;38.98
81704;BME280;71117;52.352;4.808;2024-03-06T12:01:11;102427.88;;;22.20;37.88
81704;BME280;71117;52.352;4.808;2024-03-06T12:03:37;102421.69;;;23.30;36.49
81704;BME280;71117;52.352;4.808;2024-03-06T12:06:02;102414.78;;;23.88;36.78
81704;BME280;71117;52.352;4.808;2024-03-06T12:08:28;102429.28;;;23.78;36.82
81704;BME280;71117;52.352;4.808;2024-03-06T12:10:53;102422.75;;;23.98;36.79
81704;BME280;71117;52.352;4.808;2024-03-06T12:13:20;102424.25;;;24.21;32.98
81704;BME280;71117;52.352;4.808;2024-03-06T12:15:46;102429.84;;;23.24;33.54
81704;BME280;71117;52.352;4.808;2024-03-06T12:18:11;102436.41;;;22.92;34.17
81704;BME280;71117;52.352;4.808;2024-03-06T12:20:41;102432.13;;;22.59;35.25
81704;BME280;71117;52.352;4.808;2024-03-06T12:23:07;102446.94;;;19.07;42.53
81704;BME280;71117;52.352;4.808;2024-03-06T12:25:32;102449.13;;;17.23;46.85
81704;BME280;71117;52.352;4.808;2024-03-06T12:28:06;102443.28;;;16.94;50.46
81704;BME280;71117;52.352;4.808;2024-03-06T12:30:40;102434.56;;;19.20;47.93
81704;BME280;71117;52.352;4.808;2024-03-06T12:33:07;102440.06;;;18.44;46.22
81704;BME280;71117;52.352;4.808;2024-03-06T12:35:33;102433.47;;;18.93;46.96
81704;BME280;71117;52.352;4.808;2024-03-06T12:37:58;102444.25;;;18.19;44.40
81704;BME280;71117;52.352;4.808;2024-03-06T12:40:24;102438.09;;;19.17;42.73
81704;BME280;71117;52.352;4.808;2024-03-06T12:42:50;102440.00;;;18.39;44.28
81704;BME280;71117;52.352;4.808;2024-03-06T12:45:17;102450.75;;;16.20;48.06
81704;BME280;71117;52.352;4.808;2024-03-06T12:47:44;102451.13;;;15.56;50.25
81704;BME280;71117;52.352;4.808;2024-03-06T12:50:11;102446.44;;;16.72;48.96
81704;BME280;71117;52.352;4.808;2024-03-06T12:52:37;102434.81;;;19.56;42.09
81704;BME280;71117;52.352;4.808;2024-03-06T12:55:03;102426.34;;;20.81;39.89
81704;BME280;71117;52.352;4.808;2024-03-06T12:57:31;102437.81;;;21.97;35.91
81704;BME280;71117;52.352;4.808;2024-03-06T12:59:56;102436.72;;;19.74;39.71